Hugo, Oklahoma
Current Conditions -  °F | °C
As of 3:55 AM on Tuesday 21 Oct 2014 (Local Time) from KHHW Reporting Station
NA  
Wind Chill: 60°   Ceiling: NA
Heat Index: 60°   Visibility: NA
Dew Point: 58°   Wind: 0mph
Humidity: 93%   Direction: NA
Pressure: 30.04"   Gusts: NA
Location:  34.01°N, 95.51°W
Report Text: KHHW 210855Z AUTO 00000KT 15/14 A3004 RMK AO2 T01540142 PWINO
Loading
Personal Weather Stations






























Interactive Weather Map
Tropical Storm Tracking
New forecast layout! Learn more

10-Day Weather Forecast

Advertisements
Track Severe Weather on mobile